sensor_id;sensor_type;location;lat;lon;timestamp;temperature;humidity
15765;DHT22;7983;50.744;7.086;2023-09-18T00:00:25;22.80;99.90
15765;DHT22;7983;50.744;7.086;2023-09-18T00:02:50;22.80;99.90
15765;DHT22;7983;50.744;7.086;2023-09-18T00:05:16;22.70;99.90
15765;DHT22;7983;50.744;7.086;2023-09-18T00:07:42;22.70;99.90
15765;DHT22;7983;50.744;7.086;2023-09-18T00:10:12;22.70;99.90
15765;DHT22;7983;50.744;7.086;2023-09-18T00:12:38;22.70;99.90
15765;DHT22;7983;50.744;7.086;2023-09-18T00:15:07;22.60;99.90
15765;DHT22;7983;50.744;7.086;2023-09-18T00:17:34;22.60;99.90
15765;DHT22;7983;50.744;7.086;2023-09-18T00:20:03;22.60;99.90
15765;DHT22;7983;50.744;7.086;2023-09-18T00:22:32;22.60;99.90
15765;DHT22;7983;50.744;7.086;2023-09-18T00:25:00;22.60;99.90
15765;DHT22;7983;50.744;7.086;2023-09-18T00:27:27;22.60;99.90
15765;DHT22;7983;50.744;7.086;2023-09-18T00:29:55;22.60;99.90
15765;DHT22;7983;50.744;7.086;2023-09-18T00:32:20;22.60;99.90
15765;DHT22;7983;50.744;7.086;2023-09-18T00:34:46;22.60;99.90
15765;DHT22;7983;50.744;7.086;2023-09-18T00:37:12;22.60;99.90
15765;DHT22;7983;50.744;7.086;2023-09-18T00:39:41;22.60;99.90
15765;DHT22;7983;50.744;7.086;2023-09-18T00:42:09;22.60;99.90
15765;DHT22;7983;50.744;7.086;2023-09-18T00:44:39;22.60;99.90
15765;DHT22;7983;50.744;7.086;2023-09-18T00:47:07;22.60;99.90
15765;DHT22;7983;50.744;7.086;2023-09-18T00:49:38;22.60;99.90
15765;DHT22;7983;50.744;7.086;2023-09-18T00:52:04;22.60;99.90
15765;DHT22;7983;50.744;7.086;2023-09-18T00:54:31;22.60;99.90
15765;DHT22;7983;50.744;7.086;2023-09-18T00:56:58;22.60;99.90
15765;DHT22;7983;50.744;7.086;2023-09-18T00:59:27;22.60;99.90
15765;DHT22;7983;50.744;7.086;2023-09-18T01:01:52;22.60;99.90
15765;DHT22;7983;50.744;7.086;2023-09-18T01:04:19;22.60;99.90
15765;DHT22;7983;50.744;7.086;2023-09-18T01:06:47;22.60;99.90
15765;DHT22;7983;50.744;7.086;2023-09-18T01:09:16;22.60;99.90
15765;DHT22;7983;50.744;7.086;2023-09-18T01:11:54;22.60;99.90
15765;DHT22;7983;50.744;7.086;2023-09-18T01:14:50;22.60;99.90
15765;DHT22;7983;50.744;7.086;2023-09-18T01:17:20;22.60;99.90
15765;DHT22;7983;50.744;7.086;2023-09-18T01:19:47;22.60;99.90
15765;DHT22;7983;50.744;7.086;2023-09-18T01:22:18;22.60;99.90
15765;DHT22;7983;50.744;7.086;2023-09-18T01:24:46;22.50;99.90
15765;DHT22;7983;50.744;7.086;2023-09-18T01:27:18;22.50;99.90
15765;DHT22;7983;50.744;7.086;2023-09-18T01:29:45;22.40;99.90
15765;DHT22;7983;50.744;7.086;2023-09-18T01:32:10;22.50;99.90
15765;DHT22;7983;50.744;7.086;2023-09-18T01:34:54;22.40;99.90
15765;DHT22;7983;50.744;7.086;2023-09-18T01:37:23;22.40;99.90
15765;DHT22;7983;50.744;7.086;2023-09-18T01:39:52;22.40;99.90
15765;DHT22;7983;50.744;7.086;2023-09-18T01:42:21;22.40;99.90
15765;DHT22;7983;50.744;7.086;2023-09-18T01:44:52;22.30;99.90
15765;DHT22;7983;50.744;7.086;2023-09-18T01:47:20;22.30;99.90
15765;DHT22;7983;50.744;7.086;2023-09-18T01:49:46;22.30;99.90
15765;DHT22;7983;50.744;7.086;2023-09-18T01:52:12;22.30;99.90
15765;DHT22;7983;50.744;7.086;2023-09-18T01:54:37;22.30;99.90
15765;DHT22;7983;50.744;7.086;2023-09-18T01:57:04;22.30;99.90
15765;DHT22;7983;50.744;7.086;2023-09-18T01:59:30;22.30;99.90
15765;DHT22;7983;50.744;7.086;2023-09-18T02:01:56;22.30;99.90
15765;DHT22;7983;50.744;7.086;2023-09-18T02:04:24;22.30;99.90
15765;DHT22;7983;50.744;7.086;2023-09-18T02:06:51;22.40;99.90
15765;DHT22;7983;50.744;7.086;2023-09-18T02:09:17;22.40;99.90
15765;DHT22;7983;50.744;7.086;2023-09-18T02:11:45;22.50;99.90
15765;DHT22;7983;50.744;7.086;2023-09-18T02:14:14;22.60;99.90
15765;DHT22;7983;50.744;7.086;2023-09-18T02:16:42;22.70;99.90
15765;DHT22;7983;50.744;7.086;2023-09-18T02:19:11;22.80;99.90
15765;DHT22;7983;50.744;7.086;2023-09-18T02:21:38;22.90;99.90
15765;DHT22;7983;50.744;7.086;2023-09-18T02:24:04;23.00;99.90
15765;DHT22;7983;50.744;7.086;2023-09-18T02:26:30;23.10;99.90
15765;DHT22;7983;50.744;7.086;2023-09-18T02:28:59;23.20;99.90
15765;DHT22;7983;50.744;7.086;2023-09-18T02:31:24;23.20;99.90
15765;DHT22;7983;50.744;7.086;2023-09-18T02:33:50;23.20;99.90
15765;DHT22;7983;50.744;7.086;2023-09-18T02:36:16;23.20;99.90
15765;DHT22;7983;50.744;7.086;2023-09-18T02:38:42;23.10;99.90
15765;DHT22;7983;50.744;7.086;2023-09-18T02:41:08;23.20;99.90
15765;DHT22;7983;50.744;7.086;2023-09-18T02:43:34;23.10;99.90
15765;DHT22;7983;50.744;7.086;2023-09-18T02:45:59;23.10;99.90
15765;DHT22;7983;50.744;7.086;2023-09-18T02:48:25;23.00;99.90
15765;DHT22;7983;50.744;7.086;2023-09-18T02:50:52;23.00;99.90
15765;DHT22;7983;50.744;7.086;2023-09-18T02:53:20;22.90;99.90
15765;DHT22;7983;50.744;7.086;2023-09-18T02:55:53;22.80;99.90
15765;DHT22;7983;50.744;7.086;2023-09-18T02:58:19;22.80;99.90
15765;DHT22;7983;50.744;7.086;2023-09-18T03:00:48;22.70;99.90
15765;DHT22;7983;50.744;7.086;2023-09-18T03:03:19;22.70;99.90
15765;DHT22;7983;50.744;7.086;2023-09-18T03:05:44;22.60;99.90
15765;DHT22;7983;50.744;7.086;2023-09-18T03:08:11;22.50;99.90
15765;DHT22;7983;50.744;7.086;2023-09-18T03:10:39;22.50;99.90
15765;DHT22;7983;50.744;7.086;2023-09-18T03:13:12;22.50;99.90
15765;DHT22;7983;50.744;7.086;2023-09-18T03:15:38;22.50;99.90
15765;DHT22;7983;50.744;7.086;2023-09-18T03:18:06;22.50;99.90
15765;DHT22;7983;50.744;7.086;2023-09-18T03:20:35;22.50;99.90
15765;DHT22;7983;50.744;7.086;2023-09-18T03:23:03;22.50;99.90
15765;DHT22;7983;50.744;7.086;2023-09-18T03:25:28;22.50;99.90
15765;DHT22;7983;50.744;7.086;2023-09-18T03:27:57;22.40;99.90
15765;DHT22;7983;50.744;7.086;2023-09-18T03:30:23;22.40;99.90
15765;DHT22;7983;50.744;7.086;2023-09-18T03:32:52;22.40;99.90
15765;DHT22;7983;50.744;7.086;2023-09-18T03:35:19;22.40;99.90
15765;DHT22;7983;50.744;7.086;2023-09-18T03:37:49;22.40;99.90
15765;DHT22;7983;50.744;7.086;2023-09-18T03:40:19;22.40;99.90
15765;DHT22;7983;50.744;7.086;2023-09-18T03:42:45;22.40;99.90
15765;DHT22;7983;50.744;7.086;2023-09-18T03:45:11;22.40;99.90
15765;DHT22;7983;50.744;7.086;2023-09-18T03:47:45;22.40;99.90
15765;DHT22;7983;50.744;7.086;2023-09-18T03:50:11;22.40;99.90
15765;DHT22;7983;50.744;7.086;2023-09-18T03:52:39;22.40;99.90
15765;DHT22;7983;50.744;7.086;2023-09-18T03:55:08;22.40;99.90
15765;DHT22;7983;50.744;7.086;2023-09-18T03:57:34;22.40;99.90
15765;DHT22;7983;50.744;7.086;2023-09-18T04:00:00;22.30;99.90
15765;DHT22;7983;50.744;7.086;2023-09-18T04:02:29;22.30;99.90
15765;DHT22;7983;50.744;7.086;2023-09-18T04:04:55;22.30;99.90
15765;DHT22;7983;50.744;7.086;2023-09-18T04:07:21;22.20;99.90
15765;DHT22;7983;50.744;7.086;2023-09-18T04:09:47;22.20;99.90
15765;DHT22;7983;50.744;7.086;2023-09-18T04:12:15;22.20;99.90
15765;DHT22;7983;50.744;7.086;2023-09-18T04:14:43;22.10;99.90
15765;DHT22;7983;50.744;7.086;2023-09-18T04:17:09;22.10;99.90
15765;DHT22;7983;50.744;7.086;2023-09-18T04:19:34;22.00;99.90
15765;DHT22;7983;50.744;7.086;2023-09-18T04:22:00;22.00;99.90
15765;DHT22;7983;50.744;7.086;2023-09-18T04:24:28;22.00;99.90
15765;DHT22;7983;50.744;7.086;2023-09-18T04:26:54;21.90;99.90
15765;DHT22;7983;50.744;7.086;2023-09-18T04:29:19;21.90;99.90
15765;DHT22;7983;50.744;7.086;2023-09-18T04:31:50;21.90;99.90
15765;DHT22;7983;50.744;7.086;2023-09-18T04:34:16;21.90;99.90
15765;DHT22;7983;50.744;7.086;2023-09-18T04:36:41;21.90;99.90
15765;DHT22;7983;50.744;7.086;2023-09-18T04:39:09;21.90;99.90
15765;DHT22;7983;50.744;7.086;2023-09-18T04:41:37;21.90;99.90
15765;DHT22;7983;50.744;7.086;2023-09-18T04:44:05;21.90;99.90
15765;DHT22;7983;50.744;7.086;2023-09-18T04:46:33;21.80;99.90
15765;DHT22;7983;50.744;7.086;2023-09-18T04:49:00;21.80;99.90
15765;DHT22;7983;50.744;7.086;2023-09-18T04:51:25;21.80;99.90
15765;DHT22;7983;50.744;7.086;2023-09-18T04:53:51;21.80;99.90
15765;DHT22;7983;50.744;7.086;2023-09-18T04:56:19;21.80;99.90
15765;DHT22;7983;50.744;7.086;2023-09-18T04:58:47;21.80;99.90
15765;DHT22;7983;50.744;7.086;2023-09-18T05:01:13;21.90;99.90
15765;DHT22;7983;50.744;7.086;2023-09-18T05:03:38;21.90;99.90
15765;DHT22;7983;50.744;7.086;2023-09-18T05:06:04;21.90;99.90
15765;DHT22;7983;50.744;7.086;2023-09-18T05:08:32;21.90;99.90
15765;DHT22;7983;50.744;7.086;2023-09-18T05:10:58;21.90;99.90
15765;DHT22;7983;50.744;7.086;2023-09-18T05:13:27;21.90;99.90
15765;DHT22;7983;50.744;7.086;2023-09-18T05:15:52;21.90;99.90
15765;DHT22;7983;50.744;7.086;2023-09-18T05:18:20;21.90;99.90
15765;DHT22;7983;50.744;7.086;2023-09-18T05:20:47;21.90;99.90
15765;DHT22;7983;50.744;7.086;2023-09-18T05:23:15;22.00;99.90
15765;DHT22;7983;50.744;7.086;2023-09-18T05:25:41;22.00;99.90
15765;DHT22;7983;50.744;7.086;2023-09-18T05:28:11;22.00;99.90
15765;DHT22;7983;50.744;7.086;2023-09-18T05:30:37;22.00;99.90
15765;DHT22;7983;50.744;7.086;2023-09-18T05:33:05;22.00;99.90
15765;DHT22;7983;50.744;7.086;2023-09-18T05:35:36;22.10;99.90
15765;DHT22;7983;50.744;7.086;2023-09-18T05:38:02;22.10;99.90
15765;DHT22;7983;50.744;7.086;2023-09-18T05:40:31;22.20;99.90
15765;DHT22;7983;50.744;7.086;2023-09-18T05:42:59;22.20;99.90
15765;DHT22;7983;50.744;7.086;2023-09-18T05:45:25;22.20;99.90
15765;DHT22;7983;50.744;7.086;2023-09-18T05:47:52;22.20;99.90
15765;DHT22;7983;50.744;7.086;2023-09-18T05:50:19;22.20;99.90
15765;DHT22;7983;50.744;7.086;2023-09-18T05:52:46;22.30;99.90
15765;DHT22;7983;50.744;7.086;2023-09-18T05:55:13;22.30;99.90
15765;DHT22;7983;50.744;7.086;2023-09-18T05:57:41;22.30;99.90
15765;DHT22;7983;50.744;7.086;2023-09-18T06:00:08;22.30;99.90
15765;DHT22;7983;50.744;7.086;2023-09-18T06:02:34;22.30;99.90
15765;DHT22;7983;50.744;7.086;2023-09-18T06:05:00;22.30;99.90
15765;DHT22;7983;50.744;7.086;2023-09-18T06:07:32;22.30;99.90
15765;DHT22;7983;50.744;7.086;2023-09-18T06:10:00;22.30;99.90
15765;DHT22;7983;50.744;7.086;2023-09-18T06:12:26;22.30;99.90
15765;DHT22;7983;50.744;7.086;2023-09-18T06:14:52;22.40;99.90
15765;DHT22;7983;50.744;7.086;2023-09-18T06:17:17;22.40;99.90
15765;DHT22;7983;50.744;7.086;2023-09-18T06:19:44;22.40;99.90
15765;DHT22;7983;50.744;7.086;2023-09-18T06:22:13;22.40;99.90
15765;DHT22;7983;50.744;7.086;2023-09-18T06:24:39;22.40;99.90
15765;DHT22;7983;50.744;7.086;2023-09-18T06:27:05;22.50;99.90
15765;DHT22;7983;50.744;7.086;2023-09-18T06:29:33;22.50;99.90
15765;DHT22;7983;50.744;7.086;2023-09-18T06:32:02;22.50;99.90
15765;DHT22;7983;50.744;7.086;2023-09-18T06:34:27;22.50;99.90
15765;DHT22;7983;50.744;7.086;2023-09-18T06:36:56;22.50;99.90
15765;DHT22;7983;50.744;7.086;2023-09-18T06:39:21;22.50;99.90
15765;DHT22;7983;50.744;7.086;2023-09-18T06:41:49;22.50;99.90
15765;DHT22;7983;50.744;7.086;2023-09-18T06:44:15;22.50;99.90
15765;DHT22;7983;50.744;7.086;2023-09-18T06:46:40;22.60;99.90
15765;DHT22;7983;50.744;7.086;2023-09-18T06:49:06;22.60;99.90
15765;DHT22;7983;50.744;7.086;2023-09-18T06:51:32;22.60;99.90
15765;DHT22;7983;50.744;7.086;2023-09-18T06:53:58;22.60;99.90
15765;DHT22;7983;50.744;7.086;2023-09-18T06:56:28;22.60;99.90
15765;DHT22;7983;50.744;7.086;2023-09-18T06:58:56;22.60;99.90
15765;DHT22;7983;50.744;7.086;2023-09-18T07:01:22;22.70;99.90
15765;DHT22;7983;50.744;7.086;2023-09-18T07:03:49;22.70;99.90
15765;DHT22;7983;50.744;7.086;2023-09-18T07:06:16;22.70;99.90
15765;DHT22;7983;50.744;7.086;2023-09-18T07:08:46;22.70;99.90
15765;DHT22;7983;50.744;7.086;2023-09-18T07:11:12;22.70;99.90
15765;DHT22;7983;50.744;7.086;2023-09-18T07:13:38;22.70;99.90
15765;DHT22;7983;50.744;7.086;2023-09-18T07:16:06;22.80;99.90
15765;DHT22;7983;50.744;7.086;2023-09-18T07:18:32;22.80;99.90
15765;DHT22;7983;50.744;7.086;2023-09-18T07:20:58;22.80;99.90
15765;DHT22;7983;50.744;7.086;2023-09-18T07:23:24;22.90;99.90
15765;DHT22;7983;50.744;7.086;2023-09-18T07:25:49;22.90;99.90
15765;DHT22;7983;50.744;7.086;2023-09-18T07:28:15;22.90;99.90
15765;DHT22;7983;50.744;7.086;2023-09-18T07:30:45;22.90;99.90
15765;DHT22;7983;50.744;7.086;2023-09-18T07:33:13;22.90;99.90
15765;DHT22;7983;50.744;7.086;2023-09-18T07:35:46;22.90;99.90
15765;DHT22;7983;50.744;7.086;2023-09-18T07:38:12;22.90;99.90
15765;DHT22;7983;50.744;7.086;2023-09-18T07:40:40;23.00;99.90
15765;DHT22;7983;50.744;7.086;2023-09-18T07:43:08;23.00;99.90
15765;DHT22;7983;50.744;7.086;2023-09-18T07:45:38;23.00;99.90
15765;DHT22;7983;50.744;7.086;2023-09-18T07:48:06;23.00;99.90
15765;DHT22;7983;50.744;7.086;2023-09-18T07:50:31;23.10;99.90
15765;DHT22;7983;50.744;7.086;2023-09-18T07:53:01;23.10;99.90
15765;DHT22;7983;50.744;7.086;2023-09-18T07:55:30;23.10;99.90
15765;DHT22;7983;50.744;7.086;2023-09-18T07:57:56;23.10;99.90
15765;DHT22;7983;50.744;7.086;2023-09-18T08:00:24;23.10;99.90
15765;DHT22;7983;50.744;7.086;2023-09-18T08:02:50;23.10;99.90
15765;DHT22;7983;50.744;7.086;2023-09-18T08:05:19;23.10;99.90
15765;DHT22;7983;50.744;7.086;2023-09-18T08:07:45;23.10;99.90
15765;DHT22;7983;50.744;7.086;2023-09-18T08:10:13;23.10;99.90
15765;DHT22;7983;50.744;7.086;2023-09-18T08:12:44;23.10;99.90
15765;DHT22;7983;50.744;7.086;2023-09-18T08:15:09;23.10;99.90
15765;DHT22;7983;50.744;7.086;2023-09-18T08:17:37;23.10;99.90
15765;DHT22;7983;50.744;7.086;2023-09-18T08:20:04;23.10;99.90
15765;DHT22;7983;50.744;7.086;2023-09-18T08:22:37;23.10;99.90
15765;DHT22;7983;50.744;7.086;2023-09-18T08:25:03;23.10;99.90
15765;DHT22;7983;50.744;7.086;2023-09-18T08:27:30;23.10;99.90
15765;DHT22;7983;50.744;7.086;2023-09-18T08:29:56;23.10;99.90
15765;DHT22;7983;50.744;7.086;2023-09-18T08:32:22;23.10;99.90
15765;DHT22;7983;50.744;7.086;2023-09-18T08:34:47;23.10;99.90
15765;DHT22;7983;50.744;7.086;2023-09-18T08:37:13;23.10;99.90
15765;DHT22;7983;50.744;7.086;2023-09-18T08:39:41;23.10;99.90
15765;DHT22;7983;50.744;7.086;2023-09-18T08:42:09;23.10;99.90
15765;DHT22;7983;50.744;7.086;2023-09-18T08:44:39;23.10;99.90
15765;DHT22;7983;50.744;7.086;2023-09-18T08:47:08;23.10;99.90
15765;DHT22;7983;50.744;7.086;2023-09-18T08:49:35;23.20;99.90
15765;DHT22;7983;50.744;7.086;2023-09-18T08:52:03;23.20;99.90
15765;DHT22;7983;50.744;7.086;2023-09-18T08:54:31;23.20;99.90
15765;DHT22;7983;50.744;7.086;2023-09-18T08:56:58;23.30;99.90
15765;DHT22;7983;50.744;7.086;2023-09-18T08:59:25;23.30;99.90
15765;DHT22;7983;50.744;7.086;2023-09-18T09:01:52;23.30;99.90
15765;DHT22;7983;50.744;7.086;2023-09-18T09:04:18;23.40;99.90
15765;DHT22;7983;50.744;7.086;2023-09-18T09:06:48;23.40;99.90
15765;DHT22;7983;50.744;7.086;2023-09-18T09:09:16;23.40;99.90
15765;DHT22;7983;50.744;7.086;2023-09-18T09:11:49;23.40;99.90
15765;DHT22;7983;50.744;7.086;2023-09-18T09:14:15;23.50;99.90
15765;DHT22;7983;50.744;7.086;2023-09-18T09:16:48;23.50;99.90
15765;DHT22;7983;50.744;7.086;2023-09-18T09:19:16;23.50;99.90
15765;DHT22;7983;50.744;7.086;2023-09-18T09:21:43;23.50;99.90
15765;DHT22;7983;50.744;7.086;2023-09-18T09:24:12;23.50;99.90
15765;DHT22;7983;50.744;7.086;2023-09-18T09:26:40;23.50;99.90
15765;DHT22;7983;50.744;7.086;2023-09-18T09:29:18;23.50;99.90
15765;DHT22;7983;50.744;7.086;2023-09-18T09:31:47;23.50;99.90
15765;DHT22;7983;50.744;7.086;2023-09-18T09:34:24;23.50;99.90
15765;DHT22;7983;50.744;7.086;2023-09-18T09:36:54;23.60;99.90
15765;DHT22;7983;50.744;7.086;2023-09-18T09:39:20;23.60;99.90
15765;DHT22;7983;50.744;7.086;2023-09-18T09:41:49;23.60;99.90
15765;DHT22;7983;50.744;7.086;2023-09-18T09:44:16;23.60;99.90
15765;DHT22;7983;50.744;7.086;2023-09-18T09:46:49;23.60;99.90
15765;DHT22;7983;50.744;7.086;2023-09-18T09:49:19;23.60;99.90
15765;DHT22;7983;50.744;7.086;2023-09-18T09:51:48;23.60;99.90
15765;DHT22;7983;50.744;7.086;2023-09-18T09:54:14;23.70;99.90
15765;DHT22;7983;50.744;7.086;2023-09-18T09:56:51;23.70;99.90
15765;DHT22;7983;50.744;7.086;2023-09-18T09:59:21;23.70;99.90
15765;DHT22;7983;50.744;7.086;2023-09-18T10:01:47;23.70;99.90
15765;DHT22;7983;50.744;7.086;2023-09-18T10:04:18;23.80;99.90
15765;DHT22;7983;50.744;7.086;2023-09-18T10:06:52;23.90;99.90
15765;DHT22;7983;50.744;7.086;2023-09-18T10:09:21;23.90;99.90
15765;DHT22;7983;50.744;7.086;2023-09-18T10:11:51;24.10;99.90
15765;DHT22;7983;50.744;7.086;2023-09-18T10:14:29;24.20;99.90
15765;DHT22;7983;50.744;7.086;2023-09-18T10:16:56;24.30;99.90
15765;DHT22;7983;50.744;7.086;2023-09-18T10:19:42;24.40;99.90
15765;DHT22;7983;50.744;7.086;2023-09-18T10:24:56;24.70;99.90
15765;DHT22;7983;50.744;7.086;2023-09-18T10:27:25;25.00;99.90
15765;DHT22;7983;50.744;7.086;2023-09-18T10:29:52;25.30;99.90
15765;DHT22;7983;50.744;7.086;2023-09-18T10:32:20;25.70;99.90
15765;DHT22;7983;50.744;7.086;2023-09-18T10:34:47;26.00;99.90
15765;DHT22;7983;50.744;7.086;2023-09-18T10:37:15;26.30;99.90
15765;DHT22;7983;50.744;7.086;2023-09-18T10:39:42;26.50;99.90
15765;DHT22;7983;50.744;7.086;2023-09-18T10:42:09;26.70;99.90
15765;DHT22;7983;50.744;7.086;2023-09-18T10:44:36;26.90;99.90
15765;DHT22;7983;50.744;7.086;2023-09-18T10:47:09;27.00;99.90
15765;DHT22;7983;50.744;7.086;2023-09-18T10:49:36;27.10;99.90
15765;DHT22;7983;50.744;7.086;2023-09-18T10:52:08;27.20;99.90
15765;DHT22;7983;50.744;7.086;2023-09-18T10:54:38;27.20;99.90
15765;DHT22;7983;50.744;7.086;2023-09-18T10:57:04;27.30;99.90
15765;DHT22;7983;50.744;7.086;2023-09-18T10:59:31;27.30;99.90
15765;DHT22;7983;50.744;7.086;2023-09-18T11:02:02;27.40;99.90
15765;DHT22;7983;50.744;7.086;2023-09-18T11:04:31;27.50;99.90
15765;DHT22;7983;50.744;7.086;2023-09-18T11:09:26;27.60;99.90
15765;DHT22;7983;50.744;7.086;2023-09-18T11:12:16;27.70;99.90
15765;DHT22;7983;50.744;7.086;2023-09-18T11:17:39;27.70;99.90
15765;DHT22;7983;50.744;7.086;2023-09-18T11:22:48;27.70;99.90
15765;DHT22;7983;50.744;7.086;2023-09-18T11:28:06;27.80;99.90
15765;DHT22;7983;50.744;7.086;2023-09-18T11:30:34;27.80;99.90
15765;DHT22;7983;50.744;7.086;2023-09-18T11:33:07;27.90;99.90
15765;DHT22;7983;50.744;7.086;2023-09-18T11:35:35;27.90;99.90
15765;DHT22;7983;50.744;7.086;2023-09-18T11:38:10;27.90;99.90
15765;DHT22;7983;50.744;7.086;2023-09-18T11:40:43;27.90;99.90
15765;DHT22;7983;50.744;7.086;2023-09-18T11:43:24;27.90;99.90
15765;DHT22;7983;50.744;7.086;2023-09-18T11:46:01;28.00;99.90
15765;DHT22;7983;50.744;7.086;2023-09-18T11:48:30;28.00;99.90
15765;DHT22;7983;50.744;7.086;2023-09-18T11:51:00;28.00;99.90
15765;DHT22;7983;50.744;7.086;2023-09-18T11:53:36;28.00;99.90
15765;DHT22;7983;50.744;7.086;2023-09-18T11:56:03;28.10;99.90
15765;DHT22;7983;50.744;7.086;2023-09-18T11:58:46;28.20;99.90
15765;DHT22;7983;50.744;7.086;2023-09-18T12:01:15;28.30;99.90
15765;DHT22;7983;50.744;7.086;2023-09-18T12:03:43;28.30;99.90
15765;DHT22;7983;50.744;7.086;2023-09-18T12:06:09;28.40;99.90
15765;DHT22;7983;50.744;7.086;2023-09-18T12:08:38;28.40;99.90
15765;DHT22;7983;50.744;7.086;2023-09-18T12:11:07;28.40;99.90
15765;DHT22;7983;50.744;7.086;2023-09-18T12:13:35;28.40;99.90
15765;DHT22;7983;50.744;7.086;2023-09-18T12:16:04;28.40;99.90
15765;DHT22;7983;50.744;7.086;2023-09-18T12:18:35;28.30;99.90
15765;DHT22;7983;50.744;7.086;2023-09-18T12:21:06;28.30;99.90
15765;DHT22;7983;50.744;7.086;2023-09-18T12:23:39;28.30;99.90
15765;DHT22;7983;50.744;7.086;2023-09-18T12:26:05;28.30;99.90
15765;DHT22;7983;50.744;7.086;2023-09-18T12:28:36;28.30;99.90
15765;DHT22;7983;50.744;7.086;2023-09-18T12:31:04;28.30;99.90
15765;DHT22;7983;50.744;7.086;2023-09-18T12:33:37;28.30;99.90
15765;DHT22;7983;50.744;7.086;2023-09-18T12:36:03;28.30;99.90
15765;DHT22;7983;50.744;7.086;2023-09-18T12:38:30;28.30;99.90
15765;DHT22;7983;50.744;7.086;2023-09-18T12:40:59;28.30;99.90
15765;DHT22;7983;50.744;7.086;2023-09-18T12:43:36;28.40;99.90
15765;DHT22;7983;50.744;7.086;2023-09-18T12:46:08;28.40;99.90
15765;DHT22;7983;50.744;7.086;2023-09-18T12:48:38;28.40;99.90
15765;DHT22;7983;50.744;7.086;2023-09-18T12:51:05;28.40;99.90
15765;DHT22;7983;50.744;7.086;2023-09-18T12:53:31;28.50;99.90
15765;DHT22;7983;50.744;7.086;2023-09-18T12:56:11;28.50;99.90
15765;DHT22;7983;50.744;7.086;2023-09-18T12:58:41;28.60;99.90
15765;DHT22;7983;50.744;7.086;2023-09-18T13:01:09;28.60;99.90
15765;DHT22;7983;50.744;7.086;2023-09-18T13:03:45;28.60;99.90
15765;DHT22;7983;50.744;7.086;2023-09-18T13:06:18;28.60;99.90
15765;DHT22;7983;50.744;7.086;2023-09-18T13:08:45;28.70;99.90
15765;DHT22;7983;50.744;7.086;2023-09-18T13:11:11;28.80;99.90
15765;DHT22;7983;50.744;7.086;2023-09-18T13:13:39;28.80;99.90
15765;DHT22;7983;50.744;7.086;2023-09-18T13:16:06;28.90;99.90
15765;DHT22;7983;50.744;7.086;2023-09-18T13:18:32;28.90;99.90
15765;DHT22;7983;50.744;7.086;2023-09-18T13:21:08;28.90;99.90
15765;DHT22;7983;50.744;7.086;2023-09-18T13:23:35;29.00;99.90
15765;DHT22;7983;50.744;7.086;2023-09-18T13:26:04;29.00;99.90
15765;DHT22;7983;50.744;7.086;2023-09-18T13:28:33;29.20;99.90
15765;DHT22;7983;50.744;7.086;2023-09-18T13:31:04;29.30;99.90
15765;DHT22;7983;50.744;7.086;2023-09-18T13:33:37;29.30;99.90
15765;DHT22;7983;50.744;7.086;2023-09-18T13:36:03;29.30;99.90
15765;DHT22;7983;50.744;7.086;2023-09-18T13:38:29;29.30;99.40
15765;DHT22;7983;50.744;7.086;2023-09-18T13:40:57;29.30;98.80
15765;DHT22;7983;50.744;7.086;2023-09-18T13:43:23;29.30;98.80
15765;DHT22;7983;50.744;7.086;2023-09-18T13:45:49;29.30;98.80
15765;DHT22;7983;50.744;7.086;2023-09-18T13:48:20;29.30;98.40
15765;DHT22;7983;50.744;7.086;2023-09-18T13:50:48;29.40;98.10
15765;DHT22;7983;50.744;7.086;2023-09-18T13:53:14;29.40;97.80
15765;DHT22;7983;50.744;7.086;2023-09-18T13:55:40;29.40;98.00
15765;DHT22;7983;50.744;7.086;2023-09-18T13:58:06;29.40;97.50
15765;DHT22;7983;50.744;7.086;2023-09-18T14:00:32;29.40;97.00
15765;DHT22;7983;50.744;7.086;2023-09-18T14:02:58;29.40;97.00
15765;DHT22;7983;50.744;7.086;2023-09-18T14:05:28;29.30;95.90
15765;DHT22;7983;50.744;7.086;2023-09-18T14:07:55;29.30;95.90
15765;DHT22;7983;50.744;7.086;2023-09-18T14:10:26;29.20;95.30
15765;DHT22;7983;50.744;7.086;2023-09-18T14:12:52;29.10;95.40
15765;DHT22;7983;50.744;7.086;2023-09-18T14:15:18;29.10;95.60
15765;DHT22;7983;50.744;7.086;2023-09-18T14:17:44;29.00;95.50
15765;DHT22;7983;50.744;7.086;2023-09-18T14:20:12;28.90;95.50
15765;DHT22;7983;50.744;7.086;2023-09-18T14:22:37;28.80;95.40
15765;DHT22;7983;50.744;7.086;2023-09-18T14:25:05;28.70;95.60
15765;DHT22;7983;50.744;7.086;2023-09-18T14:27:32;28.60;95.70
15765;DHT22;7983;50.744;7.086;2023-09-18T14:29:58;28.50;95.20
15765;DHT22;7983;50.744;7.086;2023-09-18T14:32:32;28.40;95.10
15765;DHT22;7983;50.744;7.086;2023-09-18T14:34:58;28.30;94.80
15765;DHT22;7983;50.744;7.086;2023-09-18T14:37:27;28.30;94.90
15765;DHT22;7983;50.744;7.086;2023-09-18T14:39:52;28.40;95.00
15765;DHT22;7983;50.744;7.086;2023-09-18T14:42:20;28.50;95.00
15765;DHT22;7983;50.744;7.086;2023-09-18T14:44:51;28.50;94.70
15765;DHT22;7983;50.744;7.086;2023-09-18T14:47:19;28.60;94.80
15765;DHT22;7983;50.744;7.086;2023-09-18T14:49:49;28.60;94.40
15765;DHT22;7983;50.744;7.086;2023-09-18T14:52:15;28.60;94.00
15765;DHT22;7983;50.744;7.086;2023-09-18T14:54:46;28.60;94.10
15765;DHT22;7983;50.744;7.086;2023-09-18T14:57:12;28.70;94.00
15765;DHT22;7983;50.744;7.086;2023-09-18T14:59:37;28.70;93.80
15765;DHT22;7983;50.744;7.086;2023-09-18T15:02:03;28.70;93.50
15765;DHT22;7983;50.744;7.086;2023-09-18T15:04:31;28.70;93.30
15765;DHT22;7983;50.744;7.086;2023-09-18T15:06:59;28.60;93.60
15765;DHT22;7983;50.744;7.086;2023-09-18T15:09:27;28.60;93.50
15765;DHT22;7983;50.744;7.086;2023-09-18T15:11:53;28.70;93.80
15765;DHT22;7983;50.744;7.086;2023-09-18T15:14:21;28.70;93.30
15765;DHT22;7983;50.744;7.086;2023-09-18T15:16:46;28.70;93.40
15765;DHT22;7983;50.744;7.086;2023-09-18T15:19:12;28.70;93.20
15765;DHT22;7983;50.744;7.086;2023-09-18T15:21:39;28.80;92.60
15765;DHT22;7983;50.744;7.086;2023-09-18T15:24:07;28.80;92.00
15765;DHT22;7983;50.744;7.086;2023-09-18T15:26:32;28.80;91.70
15765;DHT22;7983;50.744;7.086;2023-09-18T15:28:58;28.80;91.60
15765;DHT22;7983;50.744;7.086;2023-09-18T15:31:26;28.80;91.40
15765;DHT22;7983;50.744;7.086;2023-09-18T15:33:52;28.70;91.40
15765;DHT22;7983;50.744;7.086;2023-09-18T15:36:20;28.70;91.60
15765;DHT22;7983;50.744;7.086;2023-09-18T15:38:48;28.70;91.60
15765;DHT22;7983;50.744;7.086;2023-09-18T15:41:17;28.70;91.20
15765;DHT22;7983;50.744;7.086;2023-09-18T15:43:42;28.70;90.80
15765;DHT22;7983;50.744;7.086;2023-09-18T15:46:12;28.60;90.30
15765;DHT22;7983;50.744;7.086;2023-09-18T15:48:39;28.60;90.60
15765;DHT22;7983;50.744;7.086;2023-09-18T15:51:07;28.50;90.60
15765;DHT22;7983;50.744;7.086;2023-09-18T15:53:33;28.40;90.50
15765;DHT22;7983;50.744;7.086;2023-09-18T15:55:58;28.40;91.00
15765;DHT22;7983;50.744;7.086;2023-09-18T15:58:27;28.40;90.80
15765;DHT22;7983;50.744;7.086;2023-09-18T16:00:58;28.40;90.50
15765;DHT22;7983;50.744;7.086;2023-09-18T16:03:28;28.30;90.10